createdAt,value
2023-04-25T00:02:16.398Z,99.90
2023-04-25T00:04:44.956Z,99.90
2023-04-25T00:07:12.377Z,99.90
2023-04-25T00:09:39.538Z,99.90
2023-04-25T00:12:06.913Z,99.90
2023-04-25T00:14:37.072Z,99.90
2023-04-25T00:17:05.556Z,99.90
2023-04-25T00:19:33.887Z,99.90
2023-04-25T00:22:01.222Z,99.90
2023-04-25T00:24:28.337Z,99.90
2023-04-25T00:26:55.494Z,99.90
2023-04-25T00:29:22.629Z,99.90
2023-04-25T00:31:49.881Z,99.90
2023-04-25T00:34:17.042Z,99.90
2023-04-25T00:36:44.152Z,99.90
2023-04-25T00:39:11.661Z,99.90
2023-04-25T00:41:39.031Z,99.90
2023-04-25T00:44:08.186Z,99.90
2023-04-25T00:46:36.752Z,99.90
2023-04-25T00:49:03.989Z,99.90
2023-04-25T00:51:32.868Z,99.90
2023-04-25T00:54:00.588Z,99.90
2023-04-25T00:56:27.909Z,99.90
2023-04-25T00:58:57.771Z,99.90
2023-04-25T01:01:25.096Z,99.90
2023-04-25T01:03:55.353Z,99.90
2023-04-25T01:06:23.600Z,99.90
2023-04-25T01:08:50.872Z,99.90
2023-04-25T01:11:18.207Z,99.90
2023-04-25T01:13:45.860Z,99.90
2023-04-25T01:16:13.063Z,99.90
2023-04-25T01:18:41.485Z,99.90
2023-04-25T01:21:14.251Z,99.90
2023-04-25T01:23:43.225Z,99.90
2023-04-25T01:26:12.485Z,99.90
2023-04-25T01:28:42.502Z,99.90
2023-04-25T01:31:10.373Z,99.90
2023-04-25T01:33:37.751Z,99.90
2023-04-25T01:36:05.633Z,99.90
2023-04-25T01:38:33.232Z,99.90
2023-04-25T01:41:01.298Z,99.90
2023-04-25T01:43:28.671Z,99.90
2023-04-25T01:45:56.942Z,99.90
2023-04-25T01:48:24.203Z,99.90
2023-04-25T01:50:51.468Z,99.90
2023-04-25T01:53:18.721Z,99.90
2023-04-25T01:55:45.842Z,99.90
2023-04-25T01:58:14.247Z,99.90
2023-04-25T02:00:42.076Z,99.90
2023-04-25T02:03:10.155Z,99.90
2023-04-25T02:05:41.506Z,99.90
2023-04-25T02:08:10.358Z,99.90
2023-04-25T02:10:38.286Z,99.90
2023-04-25T02:13:06.544Z,99.90
2023-04-25T02:15:33.783Z,99.90
2023-04-25T02:18:03.662Z,99.90
2023-04-25T02:20:31.646Z,99.90
2023-04-25T02:22:58.787Z,99.90
2023-04-25T02:25:26.091Z,99.90
2023-04-25T02:27:53.148Z,99.90
2023-04-25T02:30:20.675Z,99.90
2023-04-25T02:32:48.175Z,99.90
2023-04-25T02:35:15.310Z,99.90
2023-04-25T02:37:43.182Z,99.90
2023-04-25T02:40:11.078Z,99.90
2023-04-25T02:42:38.266Z,99.90
2023-04-25T02:45:06.014Z,99.90
2023-04-25T02:47:33.258Z,99.90
2023-04-25T02:50:00.465Z,99.90
2023-04-25T02:52:27.633Z,99.90
2023-04-25T02:54:54.792Z,99.90
2023-04-25T02:57:22.304Z,99.90
2023-04-25T02:59:49.482Z,99.90
2023-04-25T03:02:16.681Z,99.90
2023-04-25T03:04:43.909Z,99.90
2023-04-25T03:07:12.179Z,99.90
2023-04-25T03:09:39.402Z,99.90
2023-04-25T03:12:06.806Z,99.90
2023-04-25T03:14:34.503Z,99.90
2023-04-25T03:17:01.723Z,99.90
2023-04-25T03:19:28.949Z,99.90
2023-04-25T03:21:56.136Z,99.90
2023-04-25T03:24:23.288Z,99.90
2023-04-25T03:26:50.441Z,99.90
2023-04-25T03:29:17.570Z,99.90
2023-04-25T03:31:44.781Z,99.90
2023-04-25T03:34:12.010Z,99.90
2023-04-25T03:36:41.031Z,99.90
2023-04-25T03:39:08.794Z,99.90
2023-04-25T03:41:36.043Z,99.90
2023-04-25T03:44:03.279Z,99.90
2023-04-25T03:46:30.554Z,99.90
2023-04-25T03:48:57.828Z,99.90
2023-04-25T03:51:25.068Z,99.90
2023-04-25T03:53:53.202Z,99.90
2023-04-25T03:56:21.385Z,99.90
2023-04-25T03:58:49.554Z,99.90
2023-04-25T04:01:16.674Z,99.90
2023-04-25T04:03:44.014Z,99.90
2023-04-25T04:06:11.889Z,99.90
2023-04-25T04:08:39.051Z,99.90
2023-04-25T04:11:06.345Z,99.90
2023-04-25T04:13:33.511Z,99.90
2023-04-25T04:16:00.847Z,99.90
2023-04-25T04:18:28.169Z,99.90
2023-04-25T04:20:55.501Z,99.90
2023-04-25T04:23:23.862Z,99.90
2023-04-25T04:25:51.196Z,99.90
2023-04-25T04:28:19.015Z,99.90
2023-04-25T04:30:47.266Z,99.90
2023-04-25T04:33:16.318Z,99.90
2023-04-25T04:35:44.261Z,99.90
2023-04-25T04:38:12.921Z,99.90
2023-04-25T04:40:40.267Z,99.90
2023-04-25T04:43:07.396Z,99.90
2023-04-25T04:45:34.693Z,99.90
2023-04-25T04:48:02.066Z,99.90
2023-04-25T04:50:29.426Z,99.90
2023-04-25T04:52:56.777Z,99.90
2023-04-25T04:55:23.902Z,99.90
2023-04-25T04:57:51.283Z,99.90
2023-04-25T05:00:19.335Z,99.90
2023-04-25T05:02:46.591Z,99.90
2023-04-25T05:05:13.885Z,99.90
2023-04-25T05:07:40.959Z,99.90
2023-04-25T05:10:08.827Z,99.90
2023-04-25T05:12:37.360Z,99.90
2023-04-25T05:15:04.863Z,99.90
2023-04-25T05:17:32.117Z,99.90
2023-04-25T05:19:59.421Z,99.90
2023-04-25T05:22:27.498Z,99.90
2023-04-25T05:24:56.208Z,99.90
2023-04-25T05:27:23.613Z,99.90
2023-04-25T05:29:50.845Z,99.90
2023-04-25T05:32:19.028Z,99.90
2023-04-25T05:34:46.850Z,99.90
2023-04-25T05:37:14.170Z,99.90
2023-04-25T05:39:41.447Z,99.90
2023-04-25T05:42:08.451Z,99.90
2023-04-25T05:44:35.640Z,99.90
2023-04-25T05:47:02.913Z,99.90
2023-04-25T05:49:30.076Z,99.90
2023-04-25T05:51:57.279Z,99.90
2023-04-25T05:54:24.491Z,99.90
2023-04-25T05:56:51.535Z,99.90
2023-04-25T05:59:18.561Z,99.90
2023-04-25T06:01:45.774Z,99.90
2023-04-25T06:04:13.356Z,99.90
2023-04-25T06:06:40.812Z,99.90
2023-04-25T06:09:07.981Z,99.90
2023-04-25T06:11:35.211Z,99.90
2023-04-25T06:14:02.398Z,99.90
2023-04-25T06:16:29.550Z,99.90
2023-04-25T06:18:56.658Z,99.90
2023-04-25T06:21:23.854Z,99.90
2023-04-25T06:23:51.140Z,99.90
2023-04-25T06:26:18.821Z,99.90
2023-04-25T06:28:46.161Z,99.90
2023-04-25T06:31:13.305Z,99.90
2023-04-25T06:33:40.456Z,99.90
2023-04-25T06:36:07.952Z,99.90
2023-04-25T06:38:35.994Z,99.90
2023-04-25T06:41:03.934Z,98.90
2023-04-25T06:43:34.248Z,98.80
2023-04-25T06:46:01.958Z,99.20
2023-04-25T06:48:29.426Z,95.80
2023-04-25T06:50:57.580Z,95.70
2023-04-25T06:53:24.868Z,96.70
2023-04-25T06:55:52.084Z,91.70
2023-04-25T06:58:19.787Z,85.50
2023-04-25T07:00:46.974Z,86.40
2023-04-25T07:03:14.275Z,81.60
2023-04-25T07:05:41.863Z,84.20
2023-04-25T07:08:08.966Z,85.80
2023-04-25T07:10:36.354Z,81.10
2023-04-25T07:13:03.564Z,81.50
2023-04-25T07:15:30.815Z,79.10
2023-04-25T07:17:57.946Z,75.90
2023-04-25T07:20:25.405Z,72.30
2023-04-25T07:22:52.536Z,73.40
2023-04-25T07:25:19.912Z,74.80
2023-04-25T07:27:47.183Z,75.80
2023-04-25T07:30:14.678Z,72.10
2023-04-25T07:32:42.020Z,72.50
2023-04-25T07:35:09.487Z,74.80
2023-04-25T07:37:38.614Z,73.50
2023-04-25T07:40:06.671Z,70.40
2023-04-25T07:42:33.996Z,68.40
2023-04-25T07:45:02.227Z,67.70
2023-04-25T07:47:29.379Z,67.00
2023-04-25T07:49:57.308Z,67.00
2023-04-25T07:52:24.549Z,69.40
2023-04-25T07:54:52.410Z,70.50
2023-04-25T07:57:20.782Z,69.50
2023-04-25T07:59:48.005Z,68.80
2023-04-25T08:02:15.483Z,69.80
2023-04-25T08:04:42.837Z,69.20
2023-04-25T08:07:10.752Z,70.50
2023-04-25T08:09:38.006Z,71.60
2023-04-25T08:12:05.822Z,70.60
2023-04-25T08:14:37.150Z,70.60
2023-04-25T08:17:07.362Z,69.70
2023-04-25T08:19:34.614Z,72.10
2023-04-25T08:22:01.903Z,70.80
2023-04-25T08:24:29.519Z,69.60
2023-04-25T08:26:56.894Z,69.70
2023-04-25T08:29:25.980Z,70.80
2023-04-25T08:31:54.159Z,68.60
2023-04-25T08:34:21.863Z,68.20
2023-04-25T08:36:48.991Z,65.50
2023-04-25T08:39:16.185Z,64.20
2023-04-25T08:41:43.820Z,62.70
2023-04-25T08:44:12.483Z,63.50
2023-04-25T08:46:43.199Z,63.50
2023-04-25T08:49:10.447Z,61.90
2023-04-25T08:51:46.533Z,61.20
2023-04-25T08:54:33.589Z,60.60
2023-04-25T08:57:05.459Z,60.60
2023-04-25T08:59:34.493Z,59.30
2023-04-25T09:02:02.710Z,58.30
2023-04-25T09:04:34.769Z,61.70
2023-04-25T09:07:01.813Z,59.20
2023-04-25T09:09:29.119Z,57.50
2023-04-25T09:11:56.837Z,55.30
2023-04-25T09:14:26.907Z,54.70
2023-04-25T09:16:57.349Z,55.40
2023-04-25T09:19:39.809Z,54.00
2023-04-25T09:22:09.732Z,53.70
2023-04-25T09:24:39.499Z,54.60
2023-04-25T09:27:12.078Z,56.00
2023-04-25T09:29:40.113Z,54.90
2023-04-25T09:32:25.015Z,54.50
2023-04-25T09:34:54.432Z,53.50
2023-04-25T09:37:30.289Z,55.60
2023-04-25T09:40:00.529Z,54.30
2023-04-25T09:42:32.511Z,56.00
2023-04-25T09:45:00.357Z,55.20
2023-04-25T09:47:30.229Z,55.10
2023-04-25T09:49:57.430Z,55.70
2023-04-25T09:52:26.597Z,55.50
2023-04-25T09:54:54.616Z,55.80
2023-04-25T09:57:23.989Z,56.30
2023-04-25T09:59:55.083Z,55.40
2023-04-25T10:02:26.845Z,55.60
2023-04-25T10:04:56.521Z,56.20
2023-04-25T10:07:29.587Z,56.50
2023-04-25T10:10:02.938Z,55.50
2023-04-25T10:12:32.386Z,57.30
2023-04-25T10:15:00.040Z,55.00
2023-04-25T10:17:29.438Z,55.30
2023-04-25T10:19:57.633Z,55.60
2023-04-25T10:22:45.601Z,55.10
2023-04-25T10:25:13.623Z,54.20
2023-04-25T10:27:40.939Z,54.90
2023-04-25T10:30:17.581Z,55.80
2023-04-25T10:32:46.420Z,54.80
2023-04-25T10:35:29.500Z,54.60
2023-04-25T10:38:14.883Z,54.20
2023-04-25T10:40:42.163Z,55.20
2023-04-25T10:43:41.664Z,54.00
2023-04-25T10:46:27.376Z,54.40
2023-04-25T10:48:59.850Z,54.00
2023-04-25T10:51:53.961Z,52.00
2023-04-25T10:54:26.293Z,52.30
2023-04-25T10:56:54.400Z,51.90
2023-04-25T10:59:26.286Z,50.20
2023-04-25T11:01:56.172Z,48.80
2023-04-25T11:04:37.446Z,48.40
2023-04-25T11:07:25.235Z,48.70
2023-04-25T11:09:53.063Z,49.20
2023-04-25T11:12:20.252Z,50.50
2023-04-25T11:14:47.396Z,51.10
2023-04-25T11:17:14.656Z,50.20
2023-04-25T11:19:41.973Z,51.60
2023-04-25T11:22:11.119Z,51.00
2023-04-25T11:24:38.401Z,50.40
2023-04-25T11:27:09.117Z,52.30
2023-04-25T11:29:38.292Z,51.40
2023-04-25T11:32:05.748Z,52.40
2023-04-25T11:34:34.336Z,50.50
2023-04-25T11:37:03.539Z,49.60
2023-04-25T11:39:32.684Z,50.70
2023-04-25T11:42:01.697Z,51.80
2023-04-25T11:44:29.760Z,50.30
2023-04-25T11:46:56.919Z,50.70
2023-04-25T11:49:25.912Z,50.70
2023-04-25T11:51:53.247Z,51.20
2023-04-25T11:54:20.984Z,50.60
2023-04-25T11:56:48.313Z,51.00
2023-04-25T11:59:15.777Z,52.10
2023-04-25T12:01:51.190Z,51.10
2023-04-25T12:04:21.467Z,50.30
2023-04-25T12:06:50.836Z,51.90
2023-04-25T12:09:22.500Z,52.60
2023-04-25T12:11:54.421Z,52.50
2023-04-25T12:14:28.198Z,52.10
2023-04-25T12:17:00.978Z,52.30
2023-04-25T12:19:37.074Z,52.40
2023-04-25T12:22:05.375Z,53.20
2023-04-25T12:24:38.808Z,51.50
2023-04-25T12:27:09.537Z,50.90
2023-04-25T12:32:07.394Z,51.00
2023-04-25T12:34:37.069Z,51.30
2023-04-25T12:37:04.602Z,50.60
2023-04-25T12:39:31.804Z,51.90
2023-04-25T12:42:00.336Z,49.90
2023-04-25T12:44:27.923Z,49.30
2023-04-25T12:46:56.241Z,50.70
2023-04-25T12:49:23.658Z,50.10
2023-04-25T12:51:53.422Z,49.20
2023-04-25T12:54:20.926Z,48.70
2023-04-25T12:56:48.439Z,50.70
2023-04-25T12:59:15.690Z,48.60
2023-04-25T13:01:42.902Z,48.30
2023-04-25T13:04:10.316Z,48.10
2023-04-25T13:06:37.685Z,46.80
2023-04-25T13:09:04.893Z,47.60
2023-04-25T13:11:32.582Z,47.10
2023-04-25T13:13:59.894Z,46.30
2023-04-25T13:16:27.183Z,47.00
2023-04-25T13:18:54.342Z,46.00
2023-04-25T13:21:21.430Z,46.10
2023-04-25T13:23:48.574Z,47.60
2023-04-25T13:26:16.925Z,50.70
2023-04-25T13:28:44.917Z,51.10
2023-04-25T13:31:12.419Z,51.70
2023-04-25T13:33:39.659Z,52.40
2023-04-25T13:36:07.032Z,52.60
2023-04-25T13:38:34.270Z,51.80
2023-04-25T13:41:02.279Z,52.00
2023-04-25T13:43:29.550Z,52.10
2023-04-25T13:45:57.057Z,49.90
2023-04-25T13:48:26.412Z,51.00
2023-04-25T13:50:53.667Z,50.40
2023-04-25T13:53:20.969Z,50.20
2023-04-25T13:55:48.097Z,51.60
2023-04-25T13:58:15.334Z,50.70
2023-04-25T14:00:44.747Z,49.80
2023-04-25T14:03:12.288Z,50.30
2023-04-25T14:05:40.265Z,51.00
2023-04-25T14:08:09.026Z,49.60
2023-04-25T14:10:37.092Z,50.10
2023-04-25T14:13:05.038Z,49.70
2023-04-25T14:15:36.164Z,49.50
2023-04-25T14:18:03.759Z,48.90
2023-04-25T14:20:31.340Z,48.40
2023-04-25T14:22:59.386Z,49.80
2023-04-25T14:25:26.785Z,49.50
2023-04-25T14:27:53.922Z,48.20
2023-04-25T14:30:22.674Z,48.30
2023-04-25T14:32:52.697Z,48.80
2023-04-25T14:35:19.960Z,49.80
2023-04-25T14:37:47.147Z,48.30
2023-04-25T14:40:16.399Z,47.20
2023-04-25T14:42:43.717Z,44.90
2023-04-25T14:45:11.497Z,43.50
2023-04-25T14:47:39.090Z,42.00
2023-04-25T14:50:07.660Z,39.70
2023-04-25T14:52:34.786Z,38.70
2023-04-25T14:55:06.110Z,37.60
2023-04-25T14:57:34.586Z,37.70
2023-04-25T15:00:02.386Z,38.30
2023-04-25T15:02:30.616Z,39.60
2023-04-25T15:04:58.273Z,40.90
2023-04-25T15:07:25.915Z,40.70
2023-04-25T15:09:54.444Z,41.00
2023-04-25T15:12:21.989Z,40.90
2023-04-25T15:14:49.196Z,41.50
2023-04-25T15:17:16.703Z,42.50
2023-04-25T15:19:43.847Z,44.10
2023-04-25T15:22:11.578Z,43.80
2023-04-25T15:24:38.820Z,44.40
2023-04-25T15:27:06.250Z,44.50
2023-04-25T15:29:33.377Z,45.20
2023-04-25T15:32:00.472Z,45.60
2023-04-25T15:34:27.708Z,44.60
2023-04-25T15:36:54.897Z,45.20
2023-04-25T15:39:22.050Z,46.00
2023-04-25T15:41:49.189Z,46.30
2023-04-25T15:44:16.429Z,46.90
2023-04-25T15:46:45.887Z,45.90
2023-04-25T15:49:13.369Z,46.40
2023-04-25T15:51:40.529Z,46.90
2023-04-25T15:54:07.671Z,46.50
2023-04-25T15:56:34.949Z,46.60
2023-04-25T15:59:02.127Z,47.70
2023-04-25T16:01:31.257Z,47.20
2023-04-25T16:03:59.442Z,46.80
2023-04-25T16:06:27.871Z,47.10
2023-04-25T16:08:55.328Z,47.50
2023-04-25T16:11:22.856Z,48.40
2023-04-25T16:13:50.362Z,49.30
2023-04-25T16:16:17.886Z,50.10
2023-04-25T16:18:45.133Z,50.50
2023-04-25T16:21:17.035Z,50.70
2023-04-25T16:23:44.495Z,50.20
2023-04-25T16:26:11.675Z,51.40
2023-04-25T16:28:38.986Z,51.20
2023-04-25T16:31:07.303Z,50.60
2023-04-25T16:33:35.484Z,51.50
2023-04-25T16:36:02.747Z,50.70
2023-04-25T16:38:29.872Z,50.70
2023-04-25T16:40:57.025Z,51.00
2023-04-25T16:43:24.359Z,50.80
2023-04-25T16:45:51.783Z,51.00
2023-04-25T16:48:20.927Z,51.00
2023-04-25T16:50:48.306Z,52.10
2023-04-25T16:53:15.577Z,52.00
2023-04-25T16:55:43.006Z,52.50
2023-04-25T16:58:12.264Z,57.80
2023-04-25T17:00:40.091Z,59.30
2023-04-25T17:03:08.044Z,60.10
2023-04-25T17:05:35.918Z,60.60
2023-04-25T17:08:03.378Z,60.90
2023-04-25T17:10:31.316Z,61.90
2023-04-25T17:12:58.471Z,62.20
2023-04-25T17:15:25.685Z,62.60
2023-04-25T17:17:52.973Z,63.40
2023-04-25T17:20:20.315Z,63.20
2023-04-25T17:22:47.551Z,64.00
2023-04-25T17:25:14.801Z,64.40
2023-04-25T17:27:42.489Z,65.10
2023-04-25T17:30:09.950Z,65.70
2023-04-25T17:32:37.248Z,67.70
2023-04-25T17:35:05.507Z,68.80
2023-04-25T17:37:32.766Z,69.50
2023-04-25T17:40:00.039Z,70.50
2023-04-25T17:42:28.208Z,72.40
2023-04-25T17:44:55.839Z,72.40
2023-04-25T17:47:24.216Z,73.50
2023-04-25T17:49:51.637Z,75.90
2023-04-25T17:52:18.826Z,78.30
2023-04-25T17:54:47.953Z,82.10
2023-04-25T17:57:16.517Z,84.50
2023-04-25T17:59:43.785Z,87.40
2023-04-25T18:02:11.046Z,90.30
2023-04-25T18:04:38.654Z,90.90
2023-04-25T18:07:06.266Z,92.30
2023-04-25T18:09:34.542Z,92.80
2023-04-25T18:12:02.567Z,93.10
2023-04-25T18:14:30.148Z,94.00
2023-04-25T18:16:57.416Z,93.50
2023-04-25T18:19:24.587Z,93.70
2023-04-25T18:21:56.226Z,94.00
2023-04-25T18:24:27.368Z,95.00
2023-04-25T18:26:56.142Z,96.60
2023-04-25T18:29:33.151Z,96.90
2023-04-25T18:32:01.636Z,97.40
2023-04-25T18:34:29.649Z,96.30
2023-04-25T18:36:57.183Z,95.80
2023-04-25T18:39:24.734Z,95.80
2023-04-25T18:41:58.788Z,99.60
2023-04-25T18:44:30.980Z,95.90
2023-04-25T18:46:58.187Z,99.20
2023-04-25T18:49:25.432Z,97.40
2023-04-25T18:51:52.568Z,97.80
2023-04-25T18:54:19.616Z,95.90
2023-04-25T18:56:46.941Z,98.20
2023-04-25T18:59:15.640Z,99.30
2023-04-25T19:01:43.082Z,99.70
2023-04-25T19:04:10.630Z,99.90
2023-04-25T19:06:38.005Z,99.90
2023-04-25T19:09:05.190Z,99.90
2023-04-25T19:11:45.927Z,99.90
2023-04-25T19:14:16.817Z,99.90
2023-04-25T19:16:44.342Z,99.90
2023-04-25T19:19:11.605Z,99.90
2023-04-25T19:21:38.931Z,99.90
2023-04-25T19:24:07.221Z,99.90
2023-04-25T19:26:34.718Z,99.90
2023-04-25T19:29:14.692Z,99.90
2023-04-25T19:31:48.284Z,99.90
2023-04-25T19:34:16.379Z,99.90
2023-04-25T19:36:44.383Z,99.90
2023-04-25T19:39:12.024Z,99.90
2023-04-25T19:41:39.434Z,99.90
2023-04-25T19:44:09.323Z,99.90
2023-04-25T19:46:37.531Z,99.90
2023-04-25T19:49:08.933Z,99.90
2023-04-25T19:51:38.862Z,99.90
2023-04-25T19:54:06.924Z,99.90
2023-04-25T19:56:35.616Z,99.90
2023-04-25T19:59:03.382Z,99.90
2023-04-25T20:01:30.878Z,99.90
2023-04-25T20:03:58.086Z,99.90
2023-04-25T20:06:25.683Z,99.90
2023-04-25T20:08:56.958Z,99.90
2023-04-25T20:11:26.105Z,99.90
2023-04-25T20:13:55.011Z,99.90
2023-04-25T20:16:22.515Z,99.90
2023-04-25T20:18:50.731Z,99.90
2023-04-25T20:21:24.260Z,99.90
2023-04-25T20:23:54.567Z,99.90
2023-04-25T20:26:22.848Z,99.90
2023-04-25T20:28:52.558Z,99.90
2023-04-25T20:31:25.370Z,99.90
2023-04-25T20:33:52.941Z,99.90
2023-04-25T20:36:21.990Z,99.90
2023-04-25T20:38:49.163Z,99.90
2023-04-25T20:41:18.529Z,99.90
2023-04-25T20:43:52.597Z,99.90
2023-04-25T20:46:24.715Z,99.90
2023-04-25T20:52:39.018Z,99.90
2023-04-25T20:55:07.744Z,99.90
2023-04-25T20:57:34.829Z,99.90
2023-04-25T21:00:05.651Z,99.90
2023-04-25T21:02:37.179Z,99.90
2023-04-25T21:05:04.997Z,99.90
2023-04-25T21:11:20.188Z,99.90
2023-04-25T21:13:48.087Z,99.90
2023-04-25T21:16:15.206Z,99.90
2023-04-25T21:18:42.409Z,99.90
2023-04-25T21:21:10.318Z,99.90
2023-04-25T21:23:37.475Z,99.90
2023-04-25T21:26:04.742Z,99.90
2023-04-25T21:28:32.346Z,99.90
2023-04-25T21:30:59.590Z,99.90
2023-04-25T21:33:26.676Z,99.90
2023-04-25T21:35:53.905Z,99.90
2023-04-25T21:38:21.046Z,99.90
2023-04-25T21:40:48.207Z,99.90
2023-04-25T21:43:15.796Z,99.90
2023-04-25T21:46:05.716Z,99.90
2023-04-25T21:48:30.097Z,99.90
2023-04-25T21:50:57.319Z,99.90
2023-04-25T21:53:27.789Z,99.90
2023-04-25T21:55:54.979Z,99.90
2023-04-25T21:58:22.124Z,99.90
2023-04-25T22:00:49.519Z,99.90
2023-04-25T22:03:17.370Z,99.90
2023-04-25T22:05:44.672Z,99.90
2023-04-25T22:08:11.865Z,99.90
2023-04-25T22:10:40.602Z,99.90
2023-04-25T22:13:08.168Z,99.90
2023-04-25T22:15:36.194Z,99.90
2023-04-25T22:18:04.595Z,99.90
2023-04-25T22:20:36.034Z,99.90
2023-04-25T22:23:03.404Z,99.90
2023-04-25T22:25:32.049Z,99.90
2023-04-25T22:27:59.640Z,99.90
2023-04-25T22:30:28.777Z,99.90
2023-04-25T22:32:57.791Z,99.90
2023-04-25T22:35:25.048Z,99.90
2023-04-25T22:37:52.184Z,99.90
2023-04-25T22:40:19.382Z,99.90
2023-04-25T22:42:46.821Z,99.90
2023-04-25T22:45:14.812Z,99.90
2023-04-25T22:47:42.053Z,99.90
2023-04-25T22:50:14.030Z,99.90
2023-04-25T22:52:42.829Z,99.90
2023-04-25T22:55:11.019Z,99.90
2023-04-25T22:57:41.012Z,99.90
2023-04-25T23:00:29.196Z,99.90
2023-04-25T23:02:57.168Z,99.90
2023-04-25T23:05:27.667Z,99.90
2023-04-25T23:07:54.913Z,99.90
2023-04-25T23:10:22.582Z,99.90
2023-04-25T23:12:49.633Z,99.90
2023-04-25T23:15:17.084Z,99.90
2023-04-25T23:17:44.728Z,99.90
2023-04-25T23:20:12.530Z,99.90
2023-04-25T23:22:39.883Z,99.90
2023-04-25T23:25:07.956Z,99.90
2023-04-25T23:27:35.206Z,99.90
2023-04-25T23:30:02.380Z,99.90
2023-04-25T23:32:29.553Z,99.90
2023-04-25T23:34:57.086Z,99.90
2023-04-25T23:37:24.142Z,99.90
2023-04-25T23:39:51.518Z,99.90
2023-04-25T23:42:19.131Z,99.90
2023-04-25T23:44:46.211Z,99.90
2023-04-25T23:47:14.425Z,99.90
2023-04-25T23:49:41.806Z,99.90
2023-04-25T23:52:09.133Z,99.90
2023-04-25T23:54:36.461Z,99.90
2023-04-25T23:57:06.541Z,99.90
2023-04-25T23:59:34.020Z,99.90
